sensor_id;sensor_type;location;lat;lon;timestamp;P1;durP1;ratioP1;P2;durP2;ratioP2
295;SDS011;132;48.770;9.200;2024-03-29T00:01:25;6.57;;;2.40;;
295;SDS011;132;48.770;9.200;2024-03-29T00:04:11;3.20;;;2.05;;
295;SDS011;132;48.770;9.200;2024-03-29T00:06:58;6.22;;;1.92;;
295;SDS011;132;48.770;9.200;2024-03-29T00:09:44;2.80;;;1.80;;
295;SDS011;132;48.770;9.200;2024-03-29T00:12:31;2.80;;;1.98;;
295;SDS011;132;48.770;9.200;2024-03-29T00:15:18;2.00;;;1.70;;
295;SDS011;132;48.770;9.200;2024-03-29T00:18:04;2.10;;;1.80;;
295;SDS011;132;48.770;9.200;2024-03-29T00:20:51;5.38;;;2.10;;
295;SDS011;132;48.770;9.200;2024-03-29T00:23:38;2.75;;;1.80;;
295;SDS011;132;48.770;9.200;2024-03-29T00:26:24;3.30;;;1.90;;
295;SDS011;132;48.770;9.200;2024-03-29T00:29:11;3.15;;;2.00;;
295;SDS011;132;48.770;9.200;2024-03-29T00:31:57;2.50;;;1.80;;
295;SDS011;132;48.770;9.200;2024-03-29T00:34:44;3.00;;;1.80;;
295;SDS011;132;48.770;9.200;2024-03-29T00:37:31;5.03;;;1.80;;
295;SDS011;132;48.770;9.200;2024-03-29T00:40:17;3.20;;;1.90;;
295;SDS011;132;48.770;9.200;2024-03-29T00:43:04;2.15;;;1.85;;
295;SDS011;132;48.770;9.200;2024-03-29T00:45:50;4.10;;;1.80;;
295;SDS011;132;48.770;9.200;2024-03-29T00:48:37;3.25;;;1.88;;
295;SDS011;132;48.770;9.200;2024-03-29T00:51:23;4.28;;;1.98;;
295;SDS011;132;48.770;9.200;2024-03-29T00:54:10;4.03;;;2.05;;
295;SDS011;132;48.770;9.200;2024-03-29T00:56:56;3.55;;;1.60;;
295;SDS011;132;48.770;9.200;2024-03-29T00:59:43;3.17;;;1.83;;
295;SDS011;132;48.770;9.200;2024-03-29T01:02:30;2.38;;;1.80;;
295;SDS011;132;48.770;9.200;2024-03-29T01:05:16;2.90;;;2.10;;
295;SDS011;132;48.770;9.200;2024-03-29T01:08:03;2.17;;;1.70;;
295;SDS011;132;48.770;9.200;2024-03-29T01:10:50;3.22;;;1.92;;
295;SDS011;132;48.770;9.200;2024-03-29T01:13:36;3.58;;;1.80;;
295;SDS011;132;48.770;9.200;2024-03-29T01:16:23;3.10;;;1.75;;
295;SDS011;132;48.770;9.200;2024-03-29T01:19:09;3.45;;;1.63;;
295;SDS011;132;48.770;9.200;2024-03-29T01:21:56;2.00;;;1.60;;
295;SDS011;132;48.770;9.200;2024-03-29T01:24:42;3.58;;;1.80;;
295;SDS011;132;48.770;9.200;2024-03-29T01:27:29;2.92;;;2.00;;
295;SDS011;132;48.770;9.200;2024-03-29T01:30:15;3.97;;;1.50;;
295;SDS011;132;48.770;9.200;2024-03-29T01:33:02;5.53;;;1.92;;
295;SDS011;132;48.770;9.200;2024-03-29T01:35:49;2.10;;;1.60;;
295;SDS011;132;48.770;9.200;2024-03-29T01:38:35;2.08;;;1.60;;
295;SDS011;132;48.770;9.200;2024-03-29T01:41:23;2.40;;;1.60;;
295;SDS011;132;48.770;9.200;2024-03-29T01:44:11;2.67;;;1.77;;
295;SDS011;132;48.770;9.200;2024-03-29T01:46:57;2.35;;;1.67;;
295;SDS011;132;48.770;9.200;2024-03-29T01:49:44;2.53;;;1.67;;
295;SDS011;132;48.770;9.200;2024-03-29T01:52:31;1.80;;;1.70;;
295;SDS011;132;48.770;9.200;2024-03-29T01:55:18;1.75;;;1.50;;
295;SDS011;132;48.770;9.200;2024-03-29T01:58:04;2.40;;;1.50;;
295;SDS011;132;48.770;9.200;2024-03-29T02:00:52;3.47;;;1.67;;
295;SDS011;132;48.770;9.200;2024-03-29T02:03:40;2.25;;;1.63;;
295;SDS011;132;48.770;9.200;2024-03-29T02:06:27;2.70;;;1.70;;
295;SDS011;132;48.770;9.200;2024-03-29T02:09:14;1.98;;;1.50;;
295;SDS011;132;48.770;9.200;2024-03-29T02:12:00;4.60;;;1.80;;
295;SDS011;132;48.770;9.200;2024-03-29T02:14:47;1.98;;;1.50;;
295;SDS011;132;48.770;9.200;2024-03-29T02:17:33;2.50;;;1.60;;
295;SDS011;132;48.770;9.200;2024-03-29T02:20:20;2.00;;;1.70;;
295;SDS011;132;48.770;9.200;2024-03-29T02:23:08;1.92;;;1.50;;
295;SDS011;132;48.770;9.200;2024-03-29T02:25:57;1.63;;;1.50;;
295;SDS011;132;48.770;9.200;2024-03-29T02:28:44;2.47;;;1.50;;
295;SDS011;132;48.770;9.200;2024-03-29T02:31:30;2.40;;;1.63;;
295;SDS011;132;48.770;9.200;2024-03-29T02:34:17;2.60;;;1.60;;
295;SDS011;132;48.770;9.200;2024-03-29T02:37:04;1.90;;;1.70;;
295;SDS011;132;48.770;9.200;2024-03-29T02:39:52;4.25;;;1.63;;
295;SDS011;132;48.770;9.200;2024-03-29T02:42:38;2.00;;;1.60;;
295;SDS011;132;48.770;9.200;2024-03-29T02:45:25;3.17;;;1.80;;
295;SDS011;132;48.770;9.200;2024-03-29T02:48:11;2.20;;;1.70;;
295;SDS011;132;48.770;9.200;2024-03-29T02:50:58;3.60;;;1.67;;
295;SDS011;132;48.770;9.200;2024-03-29T02:53:44;2.00;;;1.70;;
295;SDS011;132;48.770;9.200;2024-03-29T02:56:31;3.65;;;1.60;;
295;SDS011;132;48.770;9.200;2024-03-29T02:59:17;2.40;;;1.60;;
295;SDS011;132;48.770;9.200;2024-03-29T03:02:04;2.83;;;1.80;;
295;SDS011;132;48.770;9.200;2024-03-29T03:04:50;1.85;;;1.58;;
295;SDS011;132;48.770;9.200;2024-03-29T03:07:37;1.90;;;1.50;;
295;SDS011;132;48.770;9.200;2024-03-29T03:10:46;2.40;;;1.67;;
295;SDS011;132;48.770;9.200;2024-03-29T03:13:42;2.40;;;1.70;;
295;SDS011;132;48.770;9.200;2024-03-29T03:16:28;2.20;;;1.80;;
295;SDS011;132;48.770;9.200;2024-03-29T03:19:15;2.42;;;1.50;;
295;SDS011;132;48.770;9.200;2024-03-29T03:22:01;2.72;;;1.70;;
295;SDS011;132;48.770;9.200;2024-03-29T03:24:48;2.33;;;1.42;;
295;SDS011;132;48.770;9.200;2024-03-29T03:27:34;3.13;;;1.60;;
295;SDS011;132;48.770;9.200;2024-03-29T03:30:21;2.40;;;1.50;;
295;SDS011;132;48.770;9.200;2024-03-29T03:33:08;2.13;;;1.42;;
295;SDS011;132;48.770;9.200;2024-03-29T03:35:54;2.45;;;1.50;;
295;SDS011;132;48.770;9.200;2024-03-29T03:38:41;1.40;;;1.23;;
295;SDS011;132;48.770;9.200;2024-03-29T03:41:28;2.50;;;1.65;;
295;SDS011;132;48.770;9.200;2024-03-29T03:44:14;2.00;;;1.50;;
295;SDS011;132;48.770;9.200;2024-03-29T03:47:01;1.83;;;1.50;;
295;SDS011;132;48.770;9.200;2024-03-29T03:49:47;1.85;;;1.50;;
295;SDS011;132;48.770;9.200;2024-03-29T03:52:34;1.70;;;1.40;;
295;SDS011;132;48.770;9.200;2024-03-29T03:55:20;2.13;;;1.50;;
295;SDS011;132;48.770;9.200;2024-03-29T03:58:07;1.85;;;1.40;;
295;SDS011;132;48.770;9.200;2024-03-29T04:00:53;2.25;;;1.45;;
295;SDS011;132;48.770;9.200;2024-03-29T04:03:40;1.70;;;1.30;;
295;SDS011;132;48.770;9.200;2024-03-29T04:06:26;1.60;;;1.40;;
295;SDS011;132;48.770;9.200;2024-03-29T04:09:16;1.50;;;1.30;;
295;SDS011;132;48.770;9.200;2024-03-29T04:12:03;1.73;;;1.38;;
295;SDS011;132;48.770;9.200;2024-03-29T04:14:50;2.65;;;1.55;;
295;SDS011;132;48.770;9.200;2024-03-29T04:17:37;1.80;;;1.33;;
295;SDS011;132;48.770;9.200;2024-03-29T04:20:23;1.65;;;1.40;;
295;SDS011;132;48.770;9.200;2024-03-29T04:23:10;3.55;;;1.50;;
295;SDS011;132;48.770;9.200;2024-03-29T04:25:57;2.88;;;1.75;;
295;SDS011;132;48.770;9.200;2024-03-29T04:28:45;4.33;;;1.50;;
295;SDS011;132;48.770;9.200;2024-03-29T04:31:31;2.40;;;1.63;;
295;SDS011;132;48.770;9.200;2024-03-29T04:34:18;2.75;;;1.50;;
295;SDS011;132;48.770;9.200;2024-03-29T04:37:04;2.13;;;1.70;;
295;SDS011;132;48.770;9.200;2024-03-29T04:39:51;1.50;;;1.40;;
295;SDS011;132;48.770;9.200;2024-03-29T04:42:37;1.73;;;1.50;;
295;SDS011;132;48.770;9.200;2024-03-29T04:45:24;1.83;;;1.50;;
295;SDS011;132;48.770;9.200;2024-03-29T04:48:11;2.10;;;1.53;;
295;SDS011;132;48.770;9.200;2024-03-29T04:50:58;1.85;;;1.60;;
295;SDS011;132;48.770;9.200;2024-03-29T04:53:44;2.38;;;1.52;;
295;SDS011;132;48.770;9.200;2024-03-29T04:56:31;1.98;;;1.60;;
295;SDS011;132;48.770;9.200;2024-03-29T04:59:18;1.87;;;1.50;;
295;SDS011;132;48.770;9.200;2024-03-29T05:02:06;2.20;;;1.40;;
295;SDS011;132;48.770;9.200;2024-03-29T05:04:53;2.42;;;1.80;;
295;SDS011;132;48.770;9.200;2024-03-29T05:07:41;2.10;;;1.80;;
295;SDS011;132;48.770;9.200;2024-03-29T05:10:28;2.20;;;1.80;;
295;SDS011;132;48.770;9.200;2024-03-29T05:13:15;2.60;;;1.63;;
295;SDS011;132;48.770;9.200;2024-03-29T05:16:01;2.00;;;1.70;;
295;SDS011;132;48.770;9.200;2024-03-29T05:18:48;3.90;;;1.83;;
295;SDS011;132;48.770;9.200;2024-03-29T05:21:34;2.42;;;1.60;;
295;SDS011;132;48.770;9.200;2024-03-29T05:24:21;2.20;;;1.50;;
295;SDS011;132;48.770;9.200;2024-03-29T05:27:07;2.47;;;1.48;;
295;SDS011;132;48.770;9.200;2024-03-29T05:29:54;2.00;;;1.60;;
295;SDS011;132;48.770;9.200;2024-03-29T05:32:41;3.15;;;1.40;;
295;SDS011;132;48.770;9.200;2024-03-29T05:35:28;1.50;;;1.40;;
295;SDS011;132;48.770;9.200;2024-03-29T05:38:14;2.25;;;1.40;;
295;SDS011;132;48.770;9.200;2024-03-29T05:41:01;2.40;;;1.53;;
295;SDS011;132;48.770;9.200;2024-03-29T05:43:47;1.40;;;1.30;;
295;SDS011;132;48.770;9.200;2024-03-29T05:46:34;4.95;;;1.40;;
295;SDS011;132;48.770;9.200;2024-03-29T05:49:20;2.42;;;1.50;;
295;SDS011;132;48.770;9.200;2024-03-29T05:52:07;1.58;;;1.40;;
295;SDS011;132;48.770;9.200;2024-03-29T05:54:53;2.00;;;1.37;;
295;SDS011;132;48.770;9.200;2024-03-29T05:57:40;1.73;;;1.40;;
295;SDS011;132;48.770;9.200;2024-03-29T06:00:27;1.88;;;1.25;;
295;SDS011;132;48.770;9.200;2024-03-29T06:03:14;1.95;;;1.40;;
295;SDS011;132;48.770;9.200;2024-03-29T06:06:02;4.82;;;1.65;;
295;SDS011;132;48.770;9.200;2024-03-29T06:08:48;2.10;;;1.50;;
295;SDS011;132;48.770;9.200;2024-03-29T06:11:35;3.10;;;1.63;;
295;SDS011;132;48.770;9.200;2024-03-29T06:14:22;2.25;;;1.40;;
295;SDS011;132;48.770;9.200;2024-03-29T06:17:28;2.13;;;1.50;;
295;SDS011;132;48.770;9.200;2024-03-29T06:20:14;1.70;;;1.47;;
295;SDS011;132;48.770;9.200;2024-03-29T06:23:01;1.50;;;1.30;;
295;SDS011;132;48.770;9.200;2024-03-29T06:25:48;2.00;;;1.47;;
295;SDS011;132;48.770;9.200;2024-03-29T06:28:34;1.80;;;1.50;;
295;SDS011;132;48.770;9.200;2024-03-29T06:31:21;3.43;;;1.20;;
295;SDS011;132;48.770;9.200;2024-03-29T06:34:07;1.97;;;1.50;;
295;SDS011;132;48.770;9.200;2024-03-29T06:36:54;2.13;;;1.50;;
295;SDS011;132;48.770;9.200;2024-03-29T06:39:40;1.80;;;1.30;;
295;SDS011;132;48.770;9.200;2024-03-29T06:42:29;1.40;;;1.40;;
295;SDS011;132;48.770;9.200;2024-03-29T06:45:16;3.00;;;1.47;;
295;SDS011;132;48.770;9.200;2024-03-29T06:48:02;1.90;;;1.50;;
295;SDS011;132;48.770;9.200;2024-03-29T06:50:49;2.33;;;1.80;;
295;SDS011;132;48.770;9.200;2024-03-29T06:53:35;2.13;;;1.70;;
295;SDS011;132;48.770;9.200;2024-03-29T06:56:23;2.33;;;1.73;;
295;SDS011;132;48.770;9.200;2024-03-29T06:59:10;1.97;;;1.60;;
295;SDS011;132;48.770;9.200;2024-03-29T07:01:56;2.23;;;1.60;;
295;SDS011;132;48.770;9.200;2024-03-29T07:04:43;1.67;;;1.50;;
295;SDS011;132;48.770;9.200;2024-03-29T07:07:29;1.57;;;1.50;;
295;SDS011;132;48.770;9.200;2024-03-29T07:10:16;1.90;;;1.70;;
295;SDS011;132;48.770;9.200;2024-03-29T07:13:02;4.13;;;2.33;;
295;SDS011;132;48.770;9.200;2024-03-29T07:15:52;2.83;;;1.93;;
295;SDS011;132;48.770;9.200;2024-03-29T07:18:39;3.60;;;2.43;;
295;SDS011;132;48.770;9.200;2024-03-29T07:21:25;3.57;;;1.97;;
295;SDS011;132;48.770;9.200;2024-03-29T07:24:12;2.27;;;1.90;;
295;SDS011;132;48.770;9.200;2024-03-29T07:26:58;2.53;;;1.90;;
295;SDS011;132;48.770;9.200;2024-03-29T07:29:45;3.60;;;2.20;;
295;SDS011;132;48.770;9.200;2024-03-29T07:32:32;4.63;;;2.20;;
295;SDS011;132;48.770;9.200;2024-03-29T07:35:18;3.10;;;2.00;;
295;SDS011;132;48.770;9.200;2024-03-29T07:38:05;3.03;;;2.07;;
295;SDS011;132;48.770;9.200;2024-03-29T07:40:51;6.70;;;2.57;;
295;SDS011;132;48.770;9.200;2024-03-29T07:43:57;3.63;;;2.20;;
295;SDS011;132;48.770;9.200;2024-03-29T07:46:49;5.83;;;2.60;;
295;SDS011;132;48.770;9.200;2024-03-29T07:49:36;4.80;;;2.70;;
295;SDS011;132;48.770;9.200;2024-03-29T07:52:22;3.60;;;2.40;;
295;SDS011;132;48.770;9.200;2024-03-29T07:55:09;3.70;;;2.50;;
295;SDS011;132;48.770;9.200;2024-03-29T07:57:56;2.95;;;2.20;;
295;SDS011;132;48.770;9.200;2024-03-29T08:03:20;4.13;;;1.60;;
295;SDS011;132;48.770;9.200;2024-03-29T08:06:06;1.70;;;1.50;;
295;SDS011;132;48.770;9.200;2024-03-29T08:08:53;6.32;;;1.80;;
295;SDS011;132;48.770;9.200;2024-03-29T08:11:40;2.55;;;1.50;;
295;SDS011;132;48.770;9.200;2024-03-29T08:14:26;2.88;;;1.90;;
295;SDS011;132;48.770;9.200;2024-03-29T08:17:13;2.75;;;2.05;;
295;SDS011;132;48.770;9.200;2024-03-29T08:20:00;1.85;;;1.58;;
295;SDS011;132;48.770;9.200;2024-03-29T08:22:47;3.47;;;1.95;;
295;SDS011;132;48.770;9.200;2024-03-29T08:25:34;2.60;;;1.85;;
295;SDS011;132;48.770;9.200;2024-03-29T08:28:18;2.72;;;2.00;;
295;SDS011;132;48.770;9.200;2024-03-29T08:31:05;1.98;;;1.70;;
295;SDS011;132;48.770;9.200;2024-03-29T08:33:50;3.70;;;1.85;;
295;SDS011;132;48.770;9.200;2024-03-29T08:36:38;2.35;;;1.70;;
295;SDS011;132;48.770;9.200;2024-03-29T08:39:24;2.00;;;1.73;;
295;SDS011;132;48.770;9.200;2024-03-29T08:42:11;1.95;;;1.50;;
295;SDS011;132;48.770;9.200;2024-03-29T08:44:57;3.00;;;1.85;;
295;SDS011;132;48.770;9.200;2024-03-29T08:47:45;3.20;;;1.55;;
295;SDS011;132;48.770;9.200;2024-03-29T08:50:33;2.50;;;1.70;;
295;SDS011;132;48.770;9.200;2024-03-29T08:53:24;2.43;;;1.50;;
295;SDS011;132;48.770;9.200;2024-03-29T08:56:14;2.20;;;1.70;;
295;SDS011;132;48.770;9.200;2024-03-29T08:59:01;2.92;;;1.65;;
295;SDS011;132;48.770;9.200;2024-03-29T09:02:10;2.83;;;1.77;;
295;SDS011;132;48.770;9.200;2024-03-29T09:04:57;1.93;;;1.60;;
295;SDS011;132;48.770;9.200;2024-03-29T09:07:44;1.87;;;1.70;;
295;SDS011;132;48.770;9.200;2024-03-29T09:10:31;2.40;;;1.70;;
295;SDS011;132;48.770;9.200;2024-03-29T09:15:51;2.57;;;1.80;;
295;SDS011;132;48.770;9.200;2024-03-29T09:18:37;2.60;;;1.77;;
295;SDS011;132;48.770;9.200;2024-03-29T09:21:24;3.10;;;2.00;;
295;SDS011;132;48.770;9.200;2024-03-29T09:24:10;3.53;;;1.90;;
295;SDS011;132;48.770;9.200;2024-03-29T09:26:57;4.20;;;1.80;;
295;SDS011;132;48.770;9.200;2024-03-29T09:29:47;3.07;;;2.10;;
295;SDS011;132;48.770;9.200;2024-03-29T09:32:34;2.70;;;1.83;;
295;SDS011;132;48.770;9.200;2024-03-29T09:35:21;2.80;;;1.73;;
295;SDS011;132;48.770;9.200;2024-03-29T09:38:07;2.30;;;1.80;;
295;SDS011;132;48.770;9.200;2024-03-29T09:43:50;4.33;;;1.87;;
295;SDS011;132;48.770;9.200;2024-03-29T09:46:40;2.37;;;1.60;;
295;SDS011;132;48.770;9.200;2024-03-29T09:49:28;2.20;;;1.97;;
295;SDS011;132;48.770;9.200;2024-03-29T09:52:18;7.50;;;2.30;;
295;SDS011;132;48.770;9.200;2024-03-29T09:55:06;4.60;;;3.10;;
295;SDS011;132;48.770;9.200;2024-03-29T09:57:53;6.60;;;3.00;;
295;SDS011;132;48.770;9.200;2024-03-29T10:00:42;5.10;;;3.50;;
295;SDS011;132;48.770;9.200;2024-03-29T10:06:04;6.43;;;3.80;;
295;SDS011;132;48.770;9.200;2024-03-29T10:19:11;5.97;;;2.70;;
295;SDS011;132;48.770;9.200;2024-03-29T10:29:45;4.73;;;2.33;;
295;SDS011;132;48.770;9.200;2024-03-29T10:32:31;3.40;;;2.30;;
295;SDS011;132;48.770;9.200;2024-03-29T10:35:09;3.70;;;2.50;;
295;SDS011;132;48.770;9.200;2024-03-29T10:37:56;4.40;;;2.50;;
295;SDS011;132;48.770;9.200;2024-03-29T10:40:42;4.70;;;2.67;;
295;SDS011;132;48.770;9.200;2024-03-29T10:43:30;3.57;;;2.63;;
295;SDS011;132;48.770;9.200;2024-03-29T10:48:46;3.67;;;2.70;;
295;SDS011;132;48.770;9.200;2024-03-29T10:51:38;5.90;;;2.77;;
295;SDS011;132;48.770;9.200;2024-03-29T10:54:25;3.97;;;2.53;;
295;SDS011;132;48.770;9.200;2024-03-29T10:57:19;4.47;;;2.60;;
295;SDS011;132;48.770;9.200;2024-03-29T11:00:16;4.23;;;2.30;;
295;SDS011;132;48.770;9.200;2024-03-29T11:05:54;4.30;;;2.47;;
295;SDS011;132;48.770;9.200;2024-03-29T11:08:46;3.57;;;2.33;;
295;SDS011;132;48.770;9.200;2024-03-29T11:11:37;3.23;;;2.30;;
295;SDS011;132;48.770;9.200;2024-03-29T11:14:31;4.53;;;2.63;;
295;SDS011;132;48.770;9.200;2024-03-29T11:17:26;4.10;;;2.70;;
295;SDS011;132;48.770;9.200;2024-03-29T11:20:17;4.00;;;2.37;;
295;SDS011;132;48.770;9.200;2024-03-29T11:23:11;4.20;;;2.50;;
295;SDS011;132;48.770;9.200;2024-03-29T11:26:00;5.70;;;2.73;;
295;SDS011;132;48.770;9.200;2024-03-29T11:28:48;3.87;;;2.90;;
295;SDS011;132;48.770;9.200;2024-03-29T11:31:37;6.10;;;3.37;;
295;SDS011;132;48.770;9.200;2024-03-29T11:34:24;2.80;;;2.20;;
295;SDS011;132;48.770;9.200;2024-03-29T11:37:14;6.03;;;2.57;;
295;SDS011;132;48.770;9.200;2024-03-29T11:40:03;5.57;;;2.37;;
295;SDS011;132;48.770;9.200;2024-03-29T11:42:52;3.37;;;2.50;;
295;SDS011;132;48.770;9.200;2024-03-29T11:45:38;3.07;;;2.40;;
295;SDS011;132;48.770;9.200;2024-03-29T11:48:26;5.50;;;2.73;;
295;SDS011;132;48.770;9.200;2024-03-29T11:51:14;5.60;;;2.20;;
295;SDS011;132;48.770;9.200;2024-03-29T11:54:02;4.23;;;2.13;;
295;SDS011;132;48.770;9.200;2024-03-29T11:56:49;2.93;;;2.50;;
295;SDS011;132;48.770;9.200;2024-03-29T11:59:35;3.70;;;2.40;;
295;SDS011;132;48.770;9.200;2024-03-29T12:02:23;4.30;;;2.60;;
295;SDS011;132;48.770;9.200;2024-03-29T12:05:10;5.17;;;2.73;;
295;SDS011;132;48.770;9.200;2024-03-29T12:07:57;4.20;;;2.63;;
295;SDS011;132;48.770;9.200;2024-03-29T12:10:45;3.37;;;2.30;;
295;SDS011;132;48.770;9.200;2024-03-29T12:13:32;4.20;;;2.80;;
295;SDS011;132;48.770;9.200;2024-03-29T12:16:19;5.87;;;3.00;;
295;SDS011;132;48.770;9.200;2024-03-29T12:19:05;6.57;;;3.43;;
295;SDS011;132;48.770;9.200;2024-03-29T12:21:52;4.83;;;3.10;;
295;SDS011;132;48.770;9.200;2024-03-29T12:24:39;3.60;;;2.70;;
295;SDS011;132;48.770;9.200;2024-03-29T12:27:26;2.60;;;2.30;;
295;SDS011;132;48.770;9.200;2024-03-29T12:30:13;4.20;;;3.13;;
295;SDS011;132;48.770;9.200;2024-03-29T12:35:52;4.80;;;2.90;;
295;SDS011;132;48.770;9.200;2024-03-29T12:38:41;3.80;;;2.60;;
295;SDS011;132;48.770;9.200;2024-03-29T12:41:31;3.67;;;2.70;;
295;SDS011;132;48.770;9.200;2024-03-29T12:44:18;3.90;;;2.60;;
295;SDS011;132;48.770;9.200;2024-03-29T12:47:04;5.67;;;2.40;;
295;SDS011;132;48.770;9.200;2024-03-29T12:49:51;4.50;;;2.80;;
295;SDS011;132;48.770;9.200;2024-03-29T12:52:40;3.13;;;2.80;;
295;SDS011;132;48.770;9.200;2024-03-29T12:55:27;4.90;;;2.30;;
295;SDS011;132;48.770;9.200;2024-03-29T12:58:21;3.80;;;2.50;;
295;SDS011;132;48.770;9.200;2024-03-29T13:01:08;3.23;;;2.60;;
295;SDS011;132;48.770;9.200;2024-03-29T13:03:56;4.80;;;2.17;;
295;SDS011;132;48.770;9.200;2024-03-29T13:06:43;4.50;;;2.50;;
295;SDS011;132;48.770;9.200;2024-03-29T13:09:29;3.37;;;2.40;;
295;SDS011;132;48.770;9.200;2024-03-29T13:12:16;3.50;;;2.57;;
295;SDS011;132;48.770;9.200;2024-03-29T13:15:02;3.80;;;2.30;;
295;SDS011;132;48.770;9.200;2024-03-29T13:17:56;3.20;;;2.53;;
295;SDS011;132;48.770;9.200;2024-03-29T13:20:43;3.93;;;2.50;;
295;SDS011;132;48.770;9.200;2024-03-29T13:23:30;2.27;;;2.00;;
295;SDS011;132;48.770;9.200;2024-03-29T13:26:18;2.50;;;1.93;;
295;SDS011;132;48.770;9.200;2024-03-29T13:29:05;3.20;;;2.00;;
295;SDS011;132;48.770;9.200;2024-03-29T13:31:51;2.03;;;1.63;;
295;SDS011;132;48.770;9.200;2024-03-29T13:34:38;3.70;;;1.70;;
295;SDS011;132;48.770;9.200;2024-03-29T13:37:24;2.10;;;1.80;;
295;SDS011;132;48.770;9.200;2024-03-29T13:40:14;2.30;;;1.90;;
295;SDS011;132;48.770;9.200;2024-03-29T13:43:03;2.27;;;1.70;;
295;SDS011;132;48.770;9.200;2024-03-29T13:45:50;2.40;;;1.80;;
295;SDS011;132;48.770;9.200;2024-03-29T13:48:37;3.53;;;1.80;;
295;SDS011;132;48.770;9.200;2024-03-29T13:51:23;4.27;;;2.00;;
295;SDS011;132;48.770;9.200;2024-03-29T13:54:10;2.67;;;2.00;;
295;SDS011;132;48.770;9.200;2024-03-29T13:56:57;2.43;;;1.90;;
295;SDS011;132;48.770;9.200;2024-03-29T13:59:44;2.90;;;2.20;;
295;SDS011;132;48.770;9.200;2024-03-29T14:02:31;2.80;;;1.90;;
295;SDS011;132;48.770;9.200;2024-03-29T14:05:17;2.37;;;1.80;;
295;SDS011;132;48.770;9.200;2024-03-29T14:08:04;4.33;;;2.00;;
295;SDS011;132;48.770;9.200;2024-03-29T14:10:51;2.70;;;1.90;;
295;SDS011;132;48.770;9.200;2024-03-29T14:13:39;1.80;;;1.70;;
295;SDS011;132;48.770;9.200;2024-03-29T14:16:26;4.60;;;1.70;;
295;SDS011;132;48.770;9.200;2024-03-29T14:19:12;2.17;;;1.90;;
295;SDS011;132;48.770;9.200;2024-03-29T14:22:00;1.90;;;1.67;;
295;SDS011;132;48.770;9.200;2024-03-29T14:24:47;2.27;;;1.80;;
295;SDS011;132;48.770;9.200;2024-03-29T14:27:34;2.03;;;1.67;;
295;SDS011;132;48.770;9.200;2024-03-29T14:30:25;2.70;;;1.90;;
295;SDS011;132;48.770;9.200;2024-03-29T14:33:12;2.33;;;1.83;;
295;SDS011;132;48.770;9.200;2024-03-29T14:35:59;3.00;;;1.90;;
295;SDS011;132;48.770;9.200;2024-03-29T14:38:45;2.60;;;1.90;;
295;SDS011;132;48.770;9.200;2024-03-29T14:41:34;2.77;;;1.80;;
295;SDS011;132;48.770;9.200;2024-03-29T14:44:22;2.03;;;1.80;;
295;SDS011;132;48.770;9.200;2024-03-29T14:47:09;2.53;;;1.80;;
295;SDS011;132;48.770;9.200;2024-03-29T14:49:56;3.97;;;1.90;;
295;SDS011;132;48.770;9.200;2024-03-29T14:52:42;4.63;;;2.10;;
295;SDS011;132;48.770;9.200;2024-03-29T14:55:29;2.43;;;1.90;;
295;SDS011;132;48.770;9.200;2024-03-29T14:58:16;2.50;;;1.90;;
295;SDS011;132;48.770;9.200;2024-03-29T15:01:02;2.70;;;1.93;;
295;SDS011;132;48.770;9.200;2024-03-29T15:03:50;2.10;;;1.80;;
295;SDS011;132;48.770;9.200;2024-03-29T15:06:37;2.80;;;2.00;;
295;SDS011;132;48.770;9.200;2024-03-29T15:09:23;2.60;;;1.80;;
295;SDS011;132;48.770;9.200;2024-03-29T15:12:10;2.53;;;2.17;;
295;SDS011;132;48.770;9.200;2024-03-29T15:14:57;3.63;;;2.00;;
295;SDS011;132;48.770;9.200;2024-03-29T15:17:43;5.30;;;2.30;;
295;SDS011;132;48.770;9.200;2024-03-29T15:20:31;2.43;;;2.00;;
295;SDS011;132;48.770;9.200;2024-03-29T15:23:18;2.33;;;1.80;;
295;SDS011;132;48.770;9.200;2024-03-29T15:26:09;2.27;;;1.87;;
295;SDS011;132;48.770;9.200;2024-03-29T15:28:55;3.70;;;2.10;;
295;SDS011;132;48.770;9.200;2024-03-29T15:31:54;3.30;;;1.90;;
295;SDS011;132;48.770;9.200;2024-03-29T15:34:41;2.87;;;2.07;;
295;SDS011;132;48.770;9.200;2024-03-29T15:37:27;3.43;;;1.77;;
295;SDS011;132;48.770;9.200;2024-03-29T15:40:14;2.10;;;1.80;;
295;SDS011;132;48.770;9.200;2024-03-29T15:43:00;2.27;;;1.80;;
295;SDS011;132;48.770;9.200;2024-03-29T15:45:47;3.30;;;2.10;;
295;SDS011;132;48.770;9.200;2024-03-29T15:48:34;2.70;;;1.90;;
295;SDS011;132;48.770;9.200;2024-03-29T15:51:21;2.20;;;1.80;;
295;SDS011;132;48.770;9.200;2024-03-29T15:54:07;2.10;;;1.90;;
295;SDS011;132;48.770;9.200;2024-03-29T15:56:58;2.90;;;2.00;;
295;SDS011;132;48.770;9.200;2024-03-29T15:59:46;3.80;;;2.10;;
295;SDS011;132;48.770;9.200;2024-03-29T16:02:37;2.60;;;2.10;;
295;SDS011;132;48.770;9.200;2024-03-29T16:05:33;4.50;;;2.03;;
295;SDS011;132;48.770;9.200;2024-03-29T16:08:20;2.20;;;1.80;;
295;SDS011;132;48.770;9.200;2024-03-29T16:11:08;3.00;;;1.90;;
295;SDS011;132;48.770;9.200;2024-03-29T16:13:55;2.40;;;1.90;;
295;SDS011;132;48.770;9.200;2024-03-29T16:16:42;2.47;;;1.83;;
295;SDS011;132;48.770;9.200;2024-03-29T16:19:28;3.20;;;2.10;;
295;SDS011;132;48.770;9.200;2024-03-29T16:22:15;2.30;;;1.90;;
295;SDS011;132;48.770;9.200;2024-03-29T16:25:01;2.13;;;1.83;;
295;SDS011;132;48.770;9.200;2024-03-29T16:27:48;2.60;;;2.10;;
295;SDS011;132;48.770;9.200;2024-03-29T16:30:35;2.83;;;2.00;;
295;SDS011;132;48.770;9.200;2024-03-29T16:33:21;3.23;;;2.10;;
295;SDS011;132;48.770;9.200;2024-03-29T16:36:08;4.10;;;2.20;;
295;SDS011;132;48.770;9.200;2024-03-29T16:38:54;4.07;;;2.13;;
295;SDS011;132;48.770;9.200;2024-03-29T16:41:41;3.20;;;2.23;;
295;SDS011;132;48.770;9.200;2024-03-29T16:44:29;2.90;;;2.03;;
295;SDS011;132;48.770;9.200;2024-03-29T16:47:15;6.73;;;2.70;;
295;SDS011;132;48.770;9.200;2024-03-29T16:50:02;4.23;;;2.27;;
295;SDS011;132;48.770;9.200;2024-03-29T16:52:50;2.53;;;2.13;;
295;SDS011;132;48.770;9.200;2024-03-29T16:55:37;2.77;;;2.10;;
295;SDS011;132;48.770;9.200;2024-03-29T16:58:24;5.10;;;3.00;;
295;SDS011;132;48.770;9.200;2024-03-29T17:01:13;4.70;;;2.60;;
295;SDS011;132;48.770;9.200;2024-03-29T17:04:00;3.80;;;2.33;;
295;SDS011;132;48.770;9.200;2024-03-29T17:06:47;3.80;;;2.50;;
295;SDS011;132;48.770;9.200;2024-03-29T17:09:35;5.00;;;2.93;;
295;SDS011;132;48.770;9.200;2024-03-29T17:12:25;5.30;;;2.30;;
295;SDS011;132;48.770;9.200;2024-03-29T17:15:12;3.80;;;2.50;;
295;SDS011;132;48.770;9.200;2024-03-29T17:17:59;3.93;;;2.30;;
295;SDS011;132;48.770;9.200;2024-03-29T17:20:46;5.50;;;2.40;;
295;SDS011;132;48.770;9.200;2024-03-29T17:23:35;2.97;;;2.33;;
295;SDS011;132;48.770;9.200;2024-03-29T17:26:21;5.17;;;2.37;;
295;SDS011;132;48.770;9.200;2024-03-29T17:29:08;3.27;;;2.30;;
295;SDS011;132;48.770;9.200;2024-03-29T17:31:55;4.63;;;2.60;;
295;SDS011;132;48.770;9.200;2024-03-29T17:34:41;3.50;;;2.30;;
295;SDS011;132;48.770;9.200;2024-03-29T17:37:28;3.80;;;2.70;;
295;SDS011;132;48.770;9.200;2024-03-29T17:40:15;3.70;;;2.73;;
295;SDS011;132;48.770;9.200;2024-03-29T17:43:02;5.30;;;3.23;;
295;SDS011;132;48.770;9.200;2024-03-29T17:45:48;6.50;;;4.27;;
295;SDS011;132;48.770;9.200;2024-03-29T17:48:35;7.40;;;3.50;;
295;SDS011;132;48.770;9.200;2024-03-29T17:51:22;6.17;;;3.60;;
295;SDS011;132;48.770;9.200;2024-03-29T17:54:08;4.80;;;3.03;;
295;SDS011;132;48.770;9.200;2024-03-29T17:56:55;5.63;;;3.30;;
295;SDS011;132;48.770;9.200;2024-03-29T17:59:41;4.10;;;3.00;;
295;SDS011;132;48.770;9.200;2024-03-29T18:02:28;5.30;;;3.33;;
295;SDS011;132;48.770;9.200;2024-03-29T18:05:14;5.20;;;3.07;;
295;SDS011;132;48.770;9.200;2024-03-29T18:08:01;8.40;;;4.20;;
295;SDS011;132;48.770;9.200;2024-03-29T18:10:48;8.10;;;3.67;;
295;SDS011;132;48.770;9.200;2024-03-29T18:13:34;5.77;;;3.50;;
295;SDS011;132;48.770;9.200;2024-03-29T18:16:22;4.77;;;3.20;;
295;SDS011;132;48.770;9.200;2024-03-29T18:18:59;6.50;;;4.00;;
295;SDS011;132;48.770;9.200;2024-03-29T18:21:45;6.10;;;3.27;;
295;SDS011;132;48.770;9.200;2024-03-29T18:24:32;6.53;;;3.63;;
295;SDS011;132;48.770;9.200;2024-03-29T18:27:18;8.13;;;4.83;;
295;SDS011;132;48.770;9.200;2024-03-29T18:30:05;6.53;;;4.93;;